Time;durP1;ratioP1;P1;durP2;ratioP2;P2;SDS_P1;SDS_P2;PMS_P1;PMS_P2;Temp;Humidity;BMP_temperature;BMP_pressure;BME280_temperature;BME280_humidity;BME280_pressure;Samples;Min_cycle;Max_cycle;Signal;HPM_P1;HPM_P2
2022/07/18 00:00:20;;;;;;;;;;;;;;;26.09;37.25;101294.25;5035977;28;957;-34
2022/07/18 00:02:45;;;;;;;;;;;;;;;26.04;37.07;101302.03;5034573;28;1906;-34
2022/07/18 00:05:11;;;;;;;;;;;;;;;26.00;36.88;101298.78;5035617;28;997;-32
2022/07/18 00:07:36;;;;;;;;;;;;;;;25.96;37.07;101294.72;5034386;28;1087;-33
2022/07/18 00:10:01;;;;;;;;;;;;;;;25.98;37.14;101290.03;5037409;28;996;-33
2022/07/18 00:12:27;;;;;;;;;;;;;;;25.96;36.99;101291.19;5034911;28;1336;-32
2022/07/18 00:14:52;;;;;;;;;;;;;;;26.02;37.38;101306.72;5032602;28;1060;-33
2022/07/18 00:17:17;;;;;;;;;;;;;;;26.27;37.16;101298.72;5031638;28;1106;-35
2022/07/18 00:19:43;;;;;;;;;;;;;;;26.09;37.29;101302.34;5032258;28;2400;-32
2022/07/18 00:22:08;;;;;;;;;;;;;;;26.03;37.13;101301.16;5033027;28;1009;-33
2022/07/18 00:24:33;;;;;;;;;;;;;;;26.02;36.91;101304.88;5029937;28;1897;-32
2022/07/18 00:26:59;;;;;;;;;;;;;;;26.04;36.92;101304.72;5035010;28;1052;-30
2022/07/18 00:29:24;;;;;;;;;;;;;;;26.01;37.07;101305.00;5035666;28;1104;-33
2022/07/18 00:31:50;;;;;;;;;;;;;;;25.97;37.17;101291.03;5033944;28;1024;-33
2022/07/18 00:34:15;;;;;;;;;;;;;;;26.01;36.95;101286.16;5033786;28;1000;-36
2022/07/18 00:36:40;;;;;;;;;;;;;;;26.09;37.35;101298.84;5033660;28;1072;-31
2022/07/18 00:39:06;;;;;;;;;;;;;;;26.06;37.41;101294.59;5035243;28;1020;-36
2022/07/18 00:41:31;;;;;;;;;;;;;;;26.19;36.90;101302.25;5035629;28;1124;-31
2022/07/18 00:43:57;;;;;;;;;;;;;;;26.03;37.16;101309.25;5035179;28;1969;-30
2022/07/18 00:46:25;;;;;;;;;;;;;;;26.08;37.70;101316.84;5030520;28;1028;-34
2022/07/18 00:48:50;;;;;;;;;;;;;;;26.02;37.66;101318.34;5027539;28;2665;-32
2022/07/18 00:51:16;;;;;;;;;;;;;;;25.98;37.87;101319.66;5034712;28;1150;-31
2022/07/18 00:53:42;;;;;;;;;;;;;;;26.02;37.87;101320.19;5030281;28;1020;-33
2022/07/18 00:56:07;;;;;;;;;;;;;;;26.04;37.35;101329.81;5030581;28;1001;-31
2022/07/18 00:58:32;;;;;;;;;;;;;;;26.18;38.05;101322.13;5033362;28;1041;-32
2022/07/18 01:03:41;;;;;;;;;;;;;;;26.02;37.37;101321.06;5034780;28;1918;-31
2022/07/18 01:06:07;;;;;;;;;;;;;;;26.02;37.38;101329.16;5036478;28;1099;-32
2022/07/18 01:08:32;;;;;;;;;;;;;;;26.00;37.36;101325.75;5036212;28;1075;-31
2022/07/18 01:10:58;;;;;;;;;;;;;;;26.03;37.94;101329.97;5026325;28;1008;-35
2022/07/18 01:13:23;;;;;;;;;;;;;;;25.96;37.42;101332.47;5021865;28;1214;-31
2022/07/18 01:15:48;;;;;;;;;;;;;;;26.02;37.24;101329.16;5029909;28;1056;-32
2022/07/18 01:18:13;;;;;;;;;;;;;;;26.18;37.53;101335.59;5033320;28;2602;-33
2022/07/18 01:20:39;;;;;;;;;;;;;;;26.34;36.74;101331.31;5032883;28;977;-35
2022/07/18 01:23:04;;;;;;;;;;;;;;;26.18;36.60;101324.81;5031061;28;1957;-34
2022/07/18 01:25:29;;;;;;;;;;;;;;;26.09;36.36;101326.63;5034208;28;876;-32
2022/07/18 01:27:56;;;;;;;;;;;;;;;26.06;36.35;101323.44;5035367;28;1253;-34
2022/07/18 01:30:22;;;;;;;;;;;;;;;26.07;36.35;101341.28;5036052;28;1013;-37
2022/07/18 01:32:47;;;;;;;;;;;;;;;26.02;37.06;101339.06;5033623;28;1017;-31
2022/07/18 01:35:12;;;;;;;;;;;;;;;25.97;36.74;101339.56;5032986;28;1311;-36
2022/07/18 01:37:38;;;;;;;;;;;;;;;26.01;37.06;101353.53;5032040;28;906;-33
2022/07/18 01:40:12;;;;;;;;;;;;;;;26.04;37.50;101355.94;5035435;28;1147;-32
2022/07/18 01:42:37;;;;;;;;;;;;;;;26.11;37.30;101356.97;5029758;28;1967;-35
2022/07/18 01:45:03;;;;;;;;;;;;;;;26.11;37.26;101354.25;5030005;28;1005;-35
2022/07/18 01:47:28;;;;;;;;;;;;;;;26.00;36.85;101360.81;5031028;28;1016;-34
2022/07/18 01:49:53;;;;;;;;;;;;;;;26.03;36.66;101354.22;5026984;28;2422;-33
2022/07/18 01:52:18;;;;;;;;;;;;;;;25.99;36.68;101359.09;5028527;28;1147;-32
2022/07/18 01:54:44;;;;;;;;;;;;;;;25.98;36.61;101352.03;5037430;28;977;-33
2022/07/18 01:57:09;;;;;;;;;;;;;;;26.08;36.40;101342.97;5038164;28;1202;-34
2022/07/18 01:59:35;;;;;;;;;;;;;;;26.17;37.27;101339.31;5039643;28;1043;-36
2022/07/18 02:02:00;;;;;;;;;;;;;;;26.25;36.68;101333.94;5034339;28;1256;-34
2022/07/18 02:07:09;;;;;;;;;;;;;;;26.07;36.85;101344.81;5033166;28;988;-32
2022/07/18 02:09:35;;;;;;;;;;;;;;;26.07;36.67;101341.28;5029134;28;1040;-31
2022/07/18 02:12:00;;;;;;;;;;;;;;;25.99;36.83;101332.13;5033703;28;1063;-31
2022/07/18 02:14:25;;;;;;;;;;;;;;;26.03;36.28;101338.06;5031647;28;1222;-31
2022/07/18 02:16:50;;;;;;;;;;;;;;;26.00;36.50;101330.28;5039728;28;1067;-31
2022/07/18 02:19:16;;;;;;;;;;;;;;;26.07;36.68;101346.66;5036476;28;1993;-31
2022/07/18 02:21:41;;;;;;;;;;;;;;;26.17;36.48;101342.00;5039394;28;1004;-33
2022/07/18 02:24:07;;;;;;;;;;;;;;;26.14;36.40;101345.84;5038996;28;1957;-31
2022/07/18 02:26:32;;;;;;;;;;;;;;;26.12;36.51;101345.19;5039159;28;1231;-33
2022/07/18 02:28:57;;;;;;;;;;;;;;;26.06;36.15;101342.28;5039154;28;953;-31
2022/07/18 02:31:23;;;;;;;;;;;;;;;26.07;36.23;101343.97;5039335;28;1000;-32
2022/07/18 02:33:48;;;;;;;;;;;;;;;26.01;36.21;101346.31;5036739;28;1183;-32
2022/07/18 02:36:13;;;;;;;;;;;;;;;26.01;36.71;101350.84;5038016;28;1093;-33
2022/07/18 02:38:39;;;;;;;;;;;;;;;26.01;36.40;101353.53;5036024;28;1027;-31
2022/07/18 02:41:04;;;;;;;;;;;;;;;26.28;36.58;101354.34;5031050;28;1087;-30
2022/07/18 02:43:29;;;;;;;;;;;;;;;26.28;35.99;101344.41;5032707;28;1953;-32
2022/07/18 02:45:55;;;;;;;;;;;;;;;26.19;36.66;101334.59;5031522;28;1005;-32
2022/07/18 02:48:20;;;;;;;;;;;;;;;26.07;36.26;101341.28;5032801;28;2440;-31
2022/07/18 02:50:45;;;;;;;;;;;;;;;26.00;36.50;101349.16;5035082;28;1148;-33
2022/07/18 02:53:11;;;;;;;;;;;;;;;25.95;36.68;101357.75;5036670;28;1079;-32
2022/07/18 02:55:36;;;;;;;;;;;;;;;25.96;36.51;101354.03;5035748;28;1139;-32
2022/07/18 02:58:01;;;;;;;;;;;;;;;25.91;37.43;101350.97;5038945;28;1092;-30
2022/07/18 03:00:26;;;;;;;;;;;;;;;26.01;37.20;101353.53;5036859;28;1143;-31
2022/07/18 03:02:52;;;;;;;;;;;;;;;26.17;36.82;101360.88;5025413;28;1902;-37
2022/07/18 03:05:17;;;;;;;;;;;;;;;26.34;36.95;101364.50;5032814;28;1009;-36
2022/07/18 03:07:44;;;;;;;;;;;;;;;26.37;36.12;101360.66;5033238;28;1223;-34
2022/07/18 03:10:09;;;;;;;;;;;;;;;26.20;36.38;101373.19;5034702;28;992;-33
2022/07/18 03:12:34;;;;;;;;;;;;;;;26.04;36.16;101385.59;5034408;28;1198;-32
2022/07/18 03:15:00;;;;;;;;;;;;;;;26.20;37.02;101376.72;5053635;28;1033;-32
2022/07/18 03:17:25;;;;;;;;;;;;;;;26.19;36.29;101375.06;5035527;28;1040;-33
2022/07/18 03:19:50;;;;;;;;;;;;;;;26.15;35.33;101382.63;5033696;28;2517;-32
2022/07/18 03:22:16;;;;;;;;;;;;;;;26.05;35.43;101373.78;5037694;28;1103;-31
2022/07/18 03:24:41;;;;;;;;;;;;;;;25.97;35.88;101369.22;5035578;28;1981;-31
2022/07/18 03:27:06;;;;;;;;;;;;;;;26.17;35.98;101383.28;5032367;28;1484;-29
2022/07/18 03:29:31;;;;;;;;;;;;;;;25.90;36.03;101382.47;5033237;28;1060;-30
2022/07/18 03:31:57;;;;;;;;;;;;;;;25.79;36.56;101380.88;5037870;28;1155;-34
2022/07/18 03:34:22;;;;;;;;;;;;;;;25.71;36.71;101375.44;5031478;28;977;-35
2022/07/18 03:36:47;;;;;;;;;;;;;;;25.70;36.46;101373.75;5037555;28;957;-30
2022/07/18 03:39:12;;;;;;;;;;;;;;;25.63;36.69;101376.25;5033036;28;1044;-31
2022/07/18 03:41:38;;;;;;;;;;;;;;;25.68;36.12;101370.38;5033276;28;946;-35
2022/07/18 03:44:03;;;;;;;;;;;;;;;25.69;36.29;101377.47;5029946;28;1903;-31
2022/07/18 03:46:29;;;;;;;;;;;;;;;25.65;36.39;101376.06;5034857;28;1052;-29
2022/07/18 03:48:54;;;;;;;;;;;;;;;25.65;36.36;101392.25;5030303;28;2325;-31
2022/07/18 03:51:20;;;;;;;;;;;;;;;25.76;36.16;101381.19;5035818;28;965;-35
2022/07/18 03:53:45;;;;;;;;;;;;;;;26.26;36.12;101388.72;5030329;28;1236;-31
2022/07/18 03:56:10;;;;;;;;;;;;;;;26.43;35.60;101386.97;5032238;28;1481;-36
2022/07/18 03:58:36;;;;;;;;;;;;;;;26.25;34.89;101390.56;5032744;28;1338;-33
2022/07/18 04:01:01;;;;;;;;;;;;;;;26.21;36.20;101401.84;5033699;28;1220;-31
2022/07/18 04:03:26;;;;;;;;;;;;;;;26.25;35.94;101403.22;5036542;28;1902;-34
2022/07/18 04:05:51;;;;;;;;;;;;;;;26.21;35.55;101391.91;5036611;28;1456;-34
2022/07/18 04:08:17;;;;;;;;;;;;;;;26.16;35.26;101391.53;5036110;28;1240;-35
2022/07/18 04:10:43;;;;;;;;;;;;;;;25.99;35.70;101393.31;5036630;28;1315;-36
2022/07/18 04:13:08;;;;;;;;;;;;;;;26.10;36.13;101405.66;5033140;28;1426;-36
2022/07/18 04:15:33;;;;;;;;;;;;;;;26.26;35.94;101397.66;5035984;28;1445;-37
2022/07/18 04:17:59;;;;;;;;;;;;;;;26.38;36.36;101402.78;5036258;28;1965;-33
2022/07/18 04:20:24;;;;;;;;;;;;;;;26.31;36.48;101399.84;5035338;28;1056;-36
2022/07/18 04:22:49;;;;;;;;;;;;;;;26.22;36.06;101401.69;5037065;28;1898;-37
2022/07/18 04:25:15;;;;;;;;;;;;;;;26.21;35.65;101407.25;5036631;28;980;-33
2022/07/18 04:27:40;;;;;;;;;;;;;;;26.16;36.21;101418.50;5036641;28;1009;-33
2022/07/18 04:30:06;;;;;;;;;;;;;;;26.15;36.04;101416.81;5034094;28;1064;-31
2022/07/18 04:32:31;;;;;;;;;;;;;;;26.12;36.19;101415.28;5033468;28;1064;-36
2022/07/18 04:34:56;;;;;;;;;;;;;;;26.26;35.93;101421.06;5036825;28;933;-33
2022/07/18 04:37:22;;;;;;;;;;;;;;;26.34;35.44;101426.53;5032990;28;1216;-32
2022/07/18 04:39:47;;;;;;;;;;;;;;;26.35;35.83;101427.38;5032682;28;1016;-32
2022/07/18 04:42:12;;;;;;;;;;;;;;;26.60;35.77;101433.75;5035112;28;1620;-35
2022/07/18 04:44:38;;;;;;;;;;;;;;;26.72;35.42;101436.16;5036382;28;1906;-32
2022/07/18 04:47:03;;;;;;;;;;;;;;;26.94;34.76;101441.94;5036258;28;1184;-37
2022/07/18 04:49:28;;;;;;;;;;;;;;;27.14;34.35;101443.34;5033574;28;1957;-34
2022/07/18 04:51:53;;;;;;;;;;;;;;;27.18;34.51;101446.56;5035130;28;1319;-34
2022/07/18 04:54:19;;;;;;;;;;;;;;;27.21;34.75;101453.50;5036759;28;1164;-34
2022/07/18 04:56:44;;;;;;;;;;;;;;;27.61;34.59;101451.81;5036514;28;1036;-35
2022/07/18 04:59:09;;;;;;;;;;;;;;;27.31;34.42;101459.59;5035547;28;1240;-33
2022/07/18 05:01:35;;;;;;;;;;;;;;;26.98;35.25;101460.34;5031624;28;1072;-34
2022/07/18 05:04:00;;;;;;;;;;;;;;;26.99;35.65;101458.50;5030591;28;1980;-34
2022/07/18 05:06:25;;;;;;;;;;;;;;;27.24;34.93;101469.38;5032222;28;1303;-33
2022/07/18 05:08:51;;;;;;;;;;;;;;;26.92;34.51;101463.72;5030126;28;1589;-33
2022/07/18 05:11:16;;;;;;;;;;;;;;;26.98;34.63;101459.50;5033332;28;1497;-31
2022/07/18 05:13:41;;;;;;;;;;;;;;;26.99;33.98;101467.44;5027137;28;1417;-32
2022/07/18 05:16:07;;;;;;;;;;;;;;;27.03;34.13;101473.38;5028367;28;1811;-34
2022/07/18 05:18:32;;;;;;;;;;;;;;;27.07;33.89;101485.56;5033369;28;1227;-33
2022/07/18 05:20:57;;;;;;;;;;;;;;;27.12;34.05;101479.66;5034513;28;1314;-36
2022/07/18 05:23:24;;;;;;;;;;;;;;;27.24;33.92;101485.59;5035385;28;1961;-35
2022/07/18 05:25:49;;;;;;;;;;;;;;;27.25;34.21;101477.31;5035076;28;1205;-33
2022/07/18 05:28:14;;;;;;;;;;;;;;;27.25;34.49;101481.88;5035117;28;1140;-35
2022/07/18 05:30:40;;;;;;;;;;;;;;;27.30;34.19;101486.75;5033022;28;1207;-32
2022/07/18 05:33:05;;;;;;;;;;;;;;;27.31;34.30;101485.78;5035512;28;1274;-34
2022/07/18 05:35:31;;;;;;;;;;;;;;;27.43;33.81;101491.66;5031405;28;1616;-33
2022/07/18 05:37:56;;;;;;;;;;;;;;;27.33;33.40;101486.44;5028213;28;1260;-34
2022/07/18 05:40:21;;;;;;;;;;;;;;;27.30;33.20;101484.91;5026036;28;1362;-36
2022/07/18 05:42:47;;;;;;;;;;;;;;;27.33;33.17;101497.22;5029704;28;1977;-37
2022/07/18 05:45:12;;;;;;;;;;;;;;;27.38;33.41;101502.97;5031435;28;1079;-32
2022/07/18 05:47:37;;;;;;;;;;;;;;;27.46;32.97;101505.69;5029835;28;1234;-33
2022/07/18 05:50:03;;;;;;;;;;;;;;;27.48;33.27;101502.81;5025596;28;1181;-33
2022/07/18 05:52:28;;;;;;;;;;;;;;;27.38;33.62;101516.50;5034858;28;1005;-34
2022/07/18 05:54:53;;;;;;;;;;;;;;;27.19;34.21;101510.41;5035154;28;1196;-34
2022/07/18 05:57:19;;;;;;;;;;;;;;;27.22;33.70;101514.63;5033995;28;1248;-33
2022/07/18 05:59:44;;;;;;;;;;;;;;;27.20;33.45;101519.31;5035457;28;1164;-33
2022/07/18 06:02:09;;;;;;;;;;;;;;;27.19;33.78;101513.09;5034272;28;1354;-32
2022/07/18 06:04:35;;;;;;;;;;;;;;;27.22;33.71;101522.72;5027233;28;1949;-34
2022/07/18 06:07:00;;;;;;;;;;;;;;;27.14;33.95;101521.66;5035375;28;1206;-35
2022/07/18 06:09:30;;;;;;;;;;;;;;;27.37;33.57;101517.53;5034632;28;1439;-32
2022/07/18 06:11:55;;;;;;;;;;;;;;;27.31;34.23;101523.59;5035221;28;1228;-37
2022/07/18 06:14:20;;;;;;;;;;;;;;;27.30;33.86;101525.44;5033251;28;1238;-34
2022/07/18 06:16:46;;;;;;;;;;;;;;;27.22;33.68;101526.28;5034453;28;1662;-32
2022/07/18 06:19:11;;;;;;;;;;;;;;;27.12;34.04;101526.41;5034025;28;1213;-35
2022/07/18 06:21:36;;;;;;;;;;;;;;;27.12;34.47;101528.25;5035605;28;1065;-35
2022/07/18 06:24:02;;;;;;;;;;;;;;;27.16;34.05;101536.88;5035384;28;1890;-32
2022/07/18 06:26:27;;;;;;;;;;;;;;;27.26;34.40;101530.31;5034815;28;1244;-33
2022/07/18 06:28:52;;;;;;;;;;;;;;;27.26;33.97;101540.28;5029561;28;1266;-37
2022/07/18 06:31:18;;;;;;;;;;;;;;;27.26;34.72;101538.41;5033472;28;1261;-35
2022/07/18 06:33:43;;;;;;;;;;;;;;;27.34;34.21;101534.88;5034716;28;1339;-37
2022/07/18 06:36:11;;;;;;;;;;;;;;;27.16;33.58;101523.38;5034921;28;1536;-33
2022/07/18 06:38:36;;;;;;;;;;;;;;;27.04;34.52;101537.19;5034562;28;1196;-35
2022/07/18 06:41:02;;;;;;;;;;;;;;;27.12;33.63;101537.22;5034591;28;1232;-34
2022/07/18 06:43:27;;;;;;;;;;;;;;;27.02;34.10;101533.81;5038324;28;1898;-33
2022/07/18 06:45:52;;;;;;;;;;;;;;;27.20;33.79;101536.38;5038359;28;1243;-38
2022/07/18 06:48:18;;;;;;;;;;;;;;;27.38;33.41;101530.00;5038438;28;981;-35
2022/07/18 06:50:43;;;;;;;;;;;;;;;27.48;34.29;101525.31;5037405;28;1056;-34
2022/07/18 06:53:08;;;;;;;;;;;;;;;27.46;33.88;101524.63;5034325;28;1390;-34
2022/07/18 06:55:34;;;;;;;;;;;;;;;27.34;33.73;101517.84;5030919;28;1045;-39
2022/07/18 06:57:59;;;;;;;;;;;;;;;27.28;33.40;101513.13;5038977;28;1056;-37
2022/07/18 07:00:26;;;;;;;;;;;;;;;26.62;33.39;101509.13;5035715;28;1172;-36
2022/07/18 07:02:51;;;;;;;;;;;;;;;26.00;33.65;101506.38;5035605;28;1902;-36
2022/07/18 07:05:17;;;;;;;;;;;;;;;25.65;33.97;101511.66;5032504;28;1544;-35
2022/07/18 07:07:42;;;;;;;;;;;;;;;25.86;33.97;101509.63;5038782;28;1052;-37
2022/07/18 07:10:08;;;;;;;;;;;;;;;26.33;33.18;101519.25;5038553;28;1230;-38
2022/07/18 07:12:43;;;;;;;;;;;;;;;26.52;33.11;101506.56;5038606;28;996;-35
2022/07/18 16:07:36;;;;;;;;;;;;;;;18.02;53.47;101400.63;5096769;27;2219;-38
2022/07/18 16:10:33;;;;;;;;;;;;;;;18.66;55.98;101406.91;5083550;28;2152;-41
2022/07/18 16:12:59;;;;;;;;;;;;;;;20.68;48.98;101403.47;5067184;28;1985;-40
2022/07/18 16:15:24;;;;;;;;;;;;;;;20.77;48.32;101412.56;5062843;28;1945;-41
2022/07/18 16:17:49;;;;;;;;;;;;;;;20.45;49.00;101407.13;5069336;28;2305;-38
2022/07/18 16:20:15;;;;;;;;;;;;;;;20.25;49.74;101401.53;5066724;28;1795;-38
2022/07/18 16:22:41;;;;;;;;;;;;;;;20.58;49.25;101396.31;5058926;28;2131;-30
2022/07/18 16:25:07;;;;;;;;;;;;;;;22.30;46.21;101398.28;5071180;28;997;-33
2022/07/18 16:27:32;;;;;;;;;;;;;;;24.24;42.83;101403.19;5072081;28;1021;-34
2022/07/18 16:29:57;;;;;;;;;;;;;;;25.05;39.64;101403.50;5072397;28;1906;-32
2022/07/18 16:32:23;;;;;;;;;;;;;;;23.97;40.14;101408.34;5064107;28;859;-36
2022/07/18 16:34:48;;;;;;;;;;;;;;;20.80;47.16;101414.16;5070970;28;993;-39
2022/07/18 16:37:14;;;;;;;;;;;;;;;20.19;49.87;101408.19;5071481;28;1207;-41
2022/07/18 16:39:39;;;;;;;;;;;;;;;19.94;51.03;101407.41;5066359;28;1006;-42
2022/07/18 16:42:04;;;;;;;;;;;;;;;19.73;51.46;101415.25;5062351;28;949;-42
2022/07/18 16:44:30;;;;;;;;;;;;;;;19.66;52.11;101412.19;5058843;28;870;-40
2022/07/18 16:46:55;;;;;;;;;;;;;;;19.90;53.26;101408.63;5065736;28;965;-40
2022/07/18 16:49:21;;;;;;;;;;;;;;;22.41;46.16;101410.72;5065269;28;1910;-43
2022/07/18 16:51:46;;;;;;;;;;;;;;;23.79;42.98;101412.78;5068812;28;985;-42
2022/07/18 16:54:11;;;;;;;;;;;;;;;21.08;47.42;101417.28;5048190;28;2855;-43
2022/07/18 16:56:37;;;;;;;;;;;;;;;19.94;51.03;101420.75;5049620;28;1009;-42
2022/07/18 16:59:03;;;;;;;;;;;;;;;19.64;51.96;101411.44;5065435;28;1302;-43
2022/07/18 17:01:28;;;;;;;;;;;;;;;19.45;52.48;101427.03;5061475;28;1220;-43
2022/07/18 17:03:54;;;;;;;;;;;;;;;19.37;52.92;101423.25;5063766;28;1216;-43
2022/07/18 17:06:19;;;;;;;;;;;;;;;19.23;53.35;101427.78;5063462;28;1251;-43
2022/07/18 17:08:44;;;;;;;;;;;;;;;21.34;49.41;101422.28;5068676;28;1914;-43
2022/07/18 17:11:10;;;;;;;;;;;;;;;23.44;44.54;101429.34;5082689;28;1485;-43
2022/07/18 17:13:36;;;;;;;;;;;;;;;24.54;41.18;101435.38;5082676;28;1255;-42
2022/07/18 17:16:01;;;;;;;;;;;;;;;24.68;41.30;101432.16;5085020;28;1376;-43
2022/07/18 17:18:27;;;;;;;;;;;;;;;20.99;47.60;101431.38;5088271;28;1221;-43
2022/07/18 17:20:52;;;;;;;;;;;;;;;19.87;51.23;101422.22;5078165;28;1418;-43
2022/07/18 17:23:17;;;;;;;;;;;;;;;19.52;52.07;101424.75;5053022;28;2435;-41
2022/07/18 17:25:43;;;;;;;;;;;;;;;19.32;52.68;101416.44;5071823;28;1593;-40
2022/07/18 17:28:08;;;;;;;;;;;;;;;19.17;53.84;101428.22;5071760;28;1024;-42
2022/07/18 17:30:34;;;;;;;;;;;;;;;19.16;53.45;101423.84;5073974;28;996;-42
2022/07/18 17:32:59;;;;;;;;;;;;;;;21.72;48.05;101430.75;5072706;28;859;-44
2022/07/18 17:35:24;;;;;;;;;;;;;;;23.19;45.00;101436.09;5069972;28;1039;-42
2022/07/18 17:37:50;;;;;;;;;;;;;;;24.39;41.40;101432.31;5072334;28;1245;-43
2022/07/18 17:40:15;;;;;;;;;;;;;;;23.93;41.29;101430.28;5076557;28;1012;-42
2022/07/18 17:42:41;;;;;;;;;;;;;;;20.49;48.99;101428.13;5076574;28;1194;-41
2022/07/18 17:45:07;;;;;;;;;;;;;;;19.58;51.81;101426.94;5075226;28;941;-43
2022/07/18 17:47:37;;;;;;;;;;;;;;;19.30;52.79;101420.19;5071132;28;949;-41
2022/07/18 17:50:11;;;;;;;;;;;;;;;19.17;53.16;101423.75;5067818;28;1968;-41
2022/07/18 17:52:36;;;;;;;;;;;;;;;19.01;53.63;101425.78;5072257;28;2584;-43
2022/07/18 17:55:02;;;;;;;;;;;;;;;19.48;55.24;101436.63;5069700;28;989;-42
2022/07/18 17:57:29;;;;;;;;;;;;;;;22.11;46.51;101435.56;5069197;28;1204;-43
2022/07/18 17:59:54;;;;;;;;;;;;;;;23.23;43.90;101438.38;5076122;28;1234;-42
2022/07/18 18:02:20;;;;;;;;;;;;;;;24.46;40.89;101433.41;5068872;28;989;-43
2022/07/18 18:04:46;;;;;;;;;;;;;;;24.58;40.89;101442.97;5070300;28;953;-43
2022/07/18 18:07:11;;;;;;;;;;;;;;;24.34;43.02;101447.03;5068662;28;1164;-42
2022/07/18 18:09:37;;;;;;;;;;;;;;;21.19;46.71;101432.44;5069191;28;1984;-42
2022/07/18 18:12:02;;;;;;;;;;;;;;;19.78;51.07;101435.28;5071989;28;1250;-41
2022/07/18 18:14:28;;;;;;;;;;;;;;;19.33;52.40;101435.97;5071587;28;1250;-43
2022/07/18 18:16:53;;;;;;;;;;;;;;;19.15;53.00;101436.34;5064158;28;957;-42
2022/07/18 18:19:18;;;;;;;;;;;;;;;19.02;53.52;101446.19;5074296;28;988;-41
2022/07/18 18:21:43;;;;;;;;;;;;;;;19.13;54.08;101445.44;5064109;28;1096;-41
2022/07/18 18:24:09;;;;;;;;;;;;;;;21.59;47.81;101448.84;5071568;28;2570;-42
2022/07/18 18:26:34;;;;;;;;;;;;;;;20.51;48.94;101460.09;5072919;28;1049;-42
2022/07/18 18:28:59;;;;;;;;;;;;;;;19.31;51.93;101445.88;5074165;28;1897;-43
2022/07/18 18:31:25;;;;;;;;;;;;;;;18.98;53.17;101442.88;5065786;28;1060;-42
2022/07/18 18:33:50;;;;;;;;;;;;;;;18.81;53.84;101444.09;5074473;28;1288;-41
2022/07/18 18:36:15;;;;;;;;;;;;;;;18.67;54.44;101445.06;5067938;28;1120;-41
2022/07/18 18:38:41;;;;;;;;;;;;;;;21.14;49.04;101448.00;5070241;28;1056;-43
2022/07/18 18:41:06;;;;;;;;;;;;;;;22.52;46.46;101445.50;5070966;28;961;-43
2022/07/18 18:43:32;;;;;;;;;;;;;;;20.16;49.92;101456.53;5073953;28;981;-42
2022/07/18 18:45:57;;;;;;;;;;;;;;;19.07;52.81;101452.00;5071682;28;1128;-41
2022/07/18 18:48:22;;;;;;;;;;;;;;;19.44;55.18;101449.34;5075219;28;1893;-43
2022/07/18 18:50:47;;;;;;;;;;;;;;;21.74;47.76;101462.75;5068299;28;974;-43
2022/07/18 18:53:13;;;;;;;;;;;;;;;22.64;45.74;101462.34;5069353;28;2407;-40
2022/07/18 18:55:38;;;;;;;;;;;;;;;23.93;42.18;101465.22;5073731;28;1246;-42
2022/07/18 18:58:03;;;;;;;;;;;;;;;24.05;42.45;101472.13;5071156;28;1150;-43
2022/07/18 19:00:30;;;;;;;;;;;;;;;24.00;44.27;101468.19;5070662;28;949;-42
2022/07/18 19:02:55;;;;;;;;;;;;;;;24.68;40.78;101468.97;5065166;28;1155;-41
2022/07/18 19:05:21;;;;;;;;;;;;;;;24.27;42.28;101471.97;5071623;28;989;-42
2022/07/18 19:07:46;;;;;;;;;;;;;;;24.97;40.27;101472.53;5067336;28;1164;-41
2022/07/18 19:10:12;;;;;;;;;;;;;;;24.54;41.73;101470.34;5066649;28;1965;-41
2022/07/18 19:12:37;;;;;;;;;;;;;;;24.16;44.69;101467.56;5071658;28;1009;-42
2022/07/18 19:15:02;;;;;;;;;;;;;;;24.77;40.33;101478.88;5073792;28;993;-42
2022/07/18 19:17:28;;;;;;;;;;;;;;;24.46;42.38;101476.44;5074619;28;981;-41
2022/07/18 19:19:53;;;;;;;;;;;;;;;24.76;42.52;101476.28;5061783;28;1182;-43
2022/07/18 19:22:18;;;;;;;;;;;;;;;24.59;40.37;101468.00;5063970;28;2467;-42
2022/07/18 19:24:44;;;;;;;;;;;;;;;24.21;43.83;101462.63;5068028;28;1063;-42
2022/07/18 19:27:09;;;;;;;;;;;;;;;24.88;40.32;101463.50;5074272;28;1129;-44
2022/07/18 19:29:34;;;;;;;;;;;;;;;24.61;40.74;101466.03;5073165;28;1902;-41
2022/07/18 19:32:00;;;;;;;;;;;;;;;23.62;46.31;101460.03;5073237;28;981;-42
2022/07/18 19:34:25;;;;;;;;;;;;;;;24.25;41.81;101460.50;5065815;28;1119;-42
2022/07/18 19:36:50;;;;;;;;;;;;;;;24.36;42.98;101459.50;5065548;28;1049;-40
2022/07/18 19:39:16;;;;;;;;;;;;;;;24.87;40.53;101459.97;5070600;28;1123;-42
2022/07/18 19:41:42;;;;;;;;;;;;;;;24.43;40.84;101455.22;5067473;28;976;-42
2022/07/18 19:44:07;;;;;;;;;;;;;;;23.72;44.25;101455.50;5058165;28;1159;-43
2022/07/18 19:46:33;;;;;;;;;;;;;;;24.35;41.83;101458.66;5071046;28;1513;-42
2022/07/18 19:48:58;;;;;;;;;;;;;;;24.46;41.39;101452.22;5068307;28;1898;-42
2022/07/18 19:51:23;;;;;;;;;;;;;;;24.45;43.95;101458.59;5064895;28;1021;-42
2022/07/18 19:53:49;;;;;;;;;;;;;;;24.36;41.18;101457.63;5069729;28;2713;-42
2022/07/18 19:56:15;;;;;;;;;;;;;;;23.72;43.77;101448.28;5067928;28;1179;-41
2022/07/18 19:58:40;;;;;;;;;;;;;;;24.50;40.83;101461.72;5063163;28;1025;-42
2022/07/18 20:01:05;;;;;;;;;;;;;;;24.58;40.95;101461.81;5072422;28;1182;-42
2022/07/18 20:03:31;;;;;;;;;;;;;;;24.48;44.34;101454.75;5073789;28;997;-42
2022/07/18 20:05:56;;;;;;;;;;;;;;;24.19;41.24;101449.34;5073722;28;1491;-42
2022/07/18 20:08:22;;;;;;;;;;;;;;;24.22;42.19;101445.53;5071429;28;1902;-41
2022/07/18 20:10:47;;;;;;;;;;;;;;;24.17;44.71;101443.25;5074821;28;1049;-43
2022/07/18 20:13:12;;;;;;;;;;;;;;;24.77;40.68;101441.19;5064818;28;945;-44
2022/07/18 20:15:37;;;;;;;;;;;;;;;24.60;41.61;101445.53;5068782;28;984;-43
2022/07/18 20:18:03;;;;;;;;;;;;;;;23.81;44.59;101440.34;5068933;28;965;-43
2022/07/18 20:20:29;;;;;;;;;;;;;;;24.31;42.30;101450.03;5066812;28;1075;-44
2022/07/18 20:22:54;;;;;;;;;;;;;;;24.25;43.29;101447.94;5068818;28;2549;-43
2022/07/18 20:25:20;;;;;;;;;;;;;;;24.91;39.76;101447.94;5070460;28;1068;-44
2022/07/18 20:27:45;;;;;;;;;;;;;;;24.54;40.13;101451.50;5066513;28;984;-43
2022/07/18 20:30:11;;;;;;;;;;;;;;;23.67;45.64;101447.03;5070463;28;1947;-43
2022/07/18 20:32:36;;;;;;;;;;;;;;;24.24;41.43;101437.31;5069053;28;980;-43
2022/07/18 20:35:03;;;;;;;;;;;;;;;24.36;42.29;101448.75;5071536;28;954;-43
2022/07/18 20:37:28;;;;;;;;;;;;;;;24.79;42.59;101449.94;5071394;28;1229;-42
2022/07/18 20:39:53;;;;;;;;;;;;;;;24.40;40.35;101445.59;5074486;28;985;-44
2022/07/18 20:42:18;;;;;;;;;;;;;;;23.95;42.94;101444.44;5074432;28;1241;-43
2022/07/18 20:44:44;;;;;;;;;;;;;;;24.41;43.54;101444.59;5068682;28;1051;-43
2022/07/18 20:47:09;;;;;;;;;;;;;;;24.64;41.36;101448.75;5061834;28;985;-43
2022/07/18 20:49:34;;;;;;;;;;;;;;;24.35;42.66;101437.13;5065725;28;1949;-43
2022/07/18 20:52:00;;;;;;;;;;;;;;;24.14;40.67;101435.47;5071038;28;965;-43
2022/07/18 20:54:25;;;;;;;;;;;;;;;24.03;42.08;101438.31;5066782;28;2605;-44
2022/07/18 20:56:52;;;;;;;;;;;;;;;24.04;43.89;101432.81;5072277;28;953;-43
2022/07/18 20:59:18;;;;;;;;;;;;;;;24.60;40.97;101433.91;5075834;28;1071;-43
2022/07/18 21:01:43;;;;;;;;;;;;;;;24.39;42.55;101438.53;5065921;28;989;-43
2022/07/18 21:04:08;;;;;;;;;;;;;;;24.94;40.27;101434.16;5077705;28;969;-44
2022/07/18 21:06:34;;;;;;;;;;;;;;;24.82;41.05;101433.50;5077998;28;1135;-43
2022/07/18 21:08:59;;;;;;;;;;;;;;;24.42;43.57;101430.16;5068844;28;1959;-43
2022/07/18 21:11:24;;;;;;;;;;;;;;;24.23;40.02;101428.41;5067711;28;1000;-43
2022/07/18 21:13:50;;;;;;;;;;;;;;;24.05;42.21;101425.59;5071620;28;1012;-43
2022/07/18 21:16:15;;;;;;;;;;;;;;;24.01;44.88;101424.19;5067754;28;1488;-43
2022/07/18 21:18:40;;;;;;;;;;;;;;;24.62;40.65;101431.91;5072938;28;1031;-43
2022/07/18 21:21:05;;;;;;;;;;;;;;;24.33;42.49;101426.53;5072203;28;1012;-44
2022/07/18 21:23:31;;;;;;;;;;;;;;;25.10;40.09;101427.28;5072763;28;2048;-42
2022/07/18 21:25:56;;;;;;;;;;;;;;;24.50;40.06;101433.94;5076863;28;1076;-43
2022/07/18 21:28:21;;;;;;;;;;;;;;;23.87;43.00;101436.25;5077077;28;1966;-42
2022/07/18 21:30:47;;;;;;;;;;;;;;;24.56;40.92;101430.66;5071791;28;873;-43
2022/07/18 21:33:12;;;;;;;;;;;;;;;24.54;41.54;101436.19;5069793;28;964;-43
2022/07/18 21:35:37;;;;;;;;;;;;;;;24.50;43.24;101432.13;5065488;28;1183;-44